sensor_id;sensor_type;location;lat;lon;timestamp;P1;durP1;ratioP1;P2;durP2;ratioP2
48789;SDS011;41718;51.980;5.734;2022-12-20T00:02:24;5.68;;;3.75;;
48789;SDS011;41718;51.980;5.734;2022-12-20T00:07:25;5.13;;;3.35;;
48789;SDS011;41718;51.980;5.734;2022-12-20T00:12:27;5.40;;;3.03;;
48789;SDS011;41718;51.980;5.734;2022-12-20T00:17:28;3.65;;;3.05;;
48789;SDS011;41718;51.980;5.734;2022-12-20T00:22:30;11.43;;;4.18;;
48789;SDS011;41718;51.980;5.734;2022-12-20T00:27:31;6.03;;;3.50;;
48789;SDS011;41718;51.980;5.734;2022-12-20T00:32:33;3.58;;;2.80;;
48789;SDS011;41718;51.980;5.734;2022-12-20T00:37:34;5.07;;;3.15;;
48789;SDS011;41718;51.980;5.734;2022-12-20T00:42:36;3.38;;;2.40;;
48789;SDS011;41718;51.980;5.734;2022-12-20T00:47:37;2.65;;;2.35;;
48789;SDS011;41718;51.980;5.734;2022-12-20T00:52:39;5.13;;;2.58;;
48789;SDS011;41718;51.980;5.734;2022-12-20T00:57:40;2.95;;;2.53;;
48789;SDS011;41718;51.980;5.734;2022-12-20T01:02:41;2.83;;;2.50;;
48789;SDS011;41718;51.980;5.734;2022-12-20T01:07:43;4.65;;;2.80;;
48789;SDS011;41718;51.980;5.734;2022-12-20T01:12:45;8.38;;;2.47;;
48789;SDS011;41718;51.980;5.734;2022-12-20T01:17:46;6.85;;;2.88;;
48789;SDS011;41718;51.980;5.734;2022-12-20T01:22:48;5.00;;;2.78;;
48789;SDS011;41718;51.980;5.734;2022-12-20T01:27:49;6.65;;;3.08;;
48789;SDS011;41718;51.980;5.734;2022-12-20T01:32:51;4.55;;;2.92;;
48789;SDS011;41718;51.980;5.734;2022-12-20T01:37:53;5.93;;;3.50;;
48789;SDS011;41718;51.980;5.734;2022-12-20T01:42:54;5.68;;;3.05;;
48789;SDS011;41718;51.980;5.734;2022-12-20T01:47:56;3.10;;;2.17;;
48789;SDS011;41718;51.980;5.734;2022-12-20T01:53:00;7.18;;;4.03;;
48789;SDS011;41718;51.980;5.734;2022-12-20T01:58:05;4.53;;;3.08;;
48789;SDS011;41718;51.980;5.734;2022-12-20T02:03:11;7.87;;;4.27;;
48789;SDS011;41718;51.980;5.734;2022-12-20T02:08:15;10.43;;;3.90;;
48789;SDS011;41718;51.980;5.734;2022-12-20T02:13:33;7.47;;;3.78;;
48789;SDS011;41718;51.980;5.734;2022-12-20T02:18:45;6.85;;;4.28;;
48789;SDS011;41718;51.980;5.734;2022-12-20T02:34:31;8.30;;;4.90;;
48789;SDS011;41718;51.980;5.734;2022-12-20T02:39:36;9.13;;;4.78;;
48789;SDS011;41718;51.980;5.734;2022-12-20T02:44:43;7.70;;;4.40;;
48789;SDS011;41718;51.980;5.734;2022-12-20T02:50:09;5.68;;;4.10;;
48789;SDS011;41718;51.980;5.734;2022-12-20T02:55:12;6.70;;;3.92;;
48789;SDS011;41718;51.980;5.734;2022-12-20T03:00:16;6.82;;;4.43;;
48789;SDS011;41718;51.980;5.734;2022-12-20T03:05:22;7.95;;;4.47;;
48789;SDS011;41718;51.980;5.734;2022-12-20T03:10:25;4.85;;;4.20;;
48789;SDS011;41718;51.980;5.734;2022-12-20T03:15:27;5.82;;;4.47;;
48789;SDS011;41718;51.980;5.734;2022-12-20T03:20:28;5.65;;;4.55;;
48789;SDS011;41718;51.980;5.734;2022-12-20T03:25:30;8.65;;;4.68;;
48789;SDS011;41718;51.980;5.734;2022-12-20T03:30:31;7.80;;;5.43;;
48789;SDS011;41718;51.980;5.734;2022-12-20T03:35:33;6.05;;;4.63;;
48789;SDS011;41718;51.980;5.734;2022-12-20T03:40:34;6.05;;;4.65;;
48789;SDS011;41718;51.980;5.734;2022-12-20T03:45:36;9.23;;;5.00;;
48789;SDS011;41718;51.980;5.734;2022-12-20T03:50:37;5.13;;;3.75;;
48789;SDS011;41718;51.980;5.734;2022-12-20T03:55:38;5.60;;;4.13;;
48789;SDS011;41718;51.980;5.734;2022-12-20T04:05:47;6.18;;;4.50;;
48789;SDS011;41718;51.980;5.734;2022-12-20T04:10:49;5.78;;;3.80;;
48789;SDS011;41718;51.980;5.734;2022-12-20T04:16:09;8.07;;;3.90;;
48789;SDS011;41718;51.980;5.734;2022-12-20T04:21:11;5.03;;;2.80;;
48789;SDS011;41718;51.980;5.734;2022-12-20T04:26:14;3.33;;;2.90;;
48789;SDS011;41718;51.980;5.734;2022-12-20T04:31:15;5.45;;;3.50;;
48789;SDS011;41718;51.980;5.734;2022-12-20T04:36:24;6.45;;;3.13;;
48789;SDS011;41718;51.980;5.734;2022-12-20T04:41:25;3.85;;;3.22;;
48789;SDS011;41718;51.980;5.734;2022-12-20T04:46:27;3.35;;;3.00;;
48789;SDS011;41718;51.980;5.734;2022-12-20T04:51:28;5.20;;;3.15;;
48789;SDS011;41718;51.980;5.734;2022-12-20T04:56:30;7.30;;;3.85;;
48789;SDS011;41718;51.980;5.734;2022-12-20T05:01:31;2.80;;;2.33;;
48789;SDS011;41718;51.980;5.734;2022-12-20T05:06:33;3.53;;;2.92;;
48789;SDS011;41718;51.980;5.734;2022-12-20T05:11:34;4.57;;;2.70;;
48789;SDS011;41718;51.980;5.734;2022-12-20T05:16:36;6.85;;;2.97;;
48789;SDS011;41718;51.980;5.734;2022-12-20T05:21:37;4.60;;;2.95;;
48789;SDS011;41718;51.980;5.734;2022-12-20T05:26:57;6.55;;;3.70;;
48789;SDS011;41718;51.980;5.734;2022-12-20T05:31:59;6.80;;;3.83;;
48789;SDS011;41718;51.980;5.734;2022-12-20T05:37:01;5.03;;;4.07;;
48789;SDS011;41718;51.980;5.734;2022-12-20T05:42:02;6.22;;;3.95;;
48789;SDS011;41718;51.980;5.734;2022-12-20T05:47:04;4.57;;;3.25;;
48789;SDS011;41718;51.980;5.734;2022-12-20T05:52:06;7.15;;;3.88;;
48789;SDS011;41718;51.980;5.734;2022-12-20T05:57:07;6.13;;;3.60;;
48789;SDS011;41718;51.980;5.734;2022-12-20T06:02:09;4.65;;;4.22;;
48789;SDS011;41718;51.980;5.734;2022-12-20T06:07:11;5.40;;;3.88;;
48789;SDS011;41718;51.980;5.734;2022-12-20T06:12:13;6.40;;;4.15;;
48789;SDS011;41718;51.980;5.734;2022-12-20T06:17:14;6.53;;;3.92;;
48789;SDS011;41718;51.980;5.734;2022-12-20T06:22:16;6.03;;;4.00;;
48789;SDS011;41718;51.980;5.734;2022-12-20T06:27:17;4.70;;;3.65;;
48789;SDS011;41718;51.980;5.734;2022-12-20T06:32:19;5.38;;;3.28;;
48789;SDS011;41718;51.980;5.734;2022-12-20T06:37:20;5.20;;;2.97;;
48789;SDS011;41718;51.980;5.734;2022-12-20T06:42:22;3.78;;;3.15;;
48789;SDS011;41718;51.980;5.734;2022-12-20T06:47:24;7.03;;;3.33;;
48789;SDS011;41718;51.980;5.734;2022-12-20T06:52:25;3.72;;;3.28;;
48789;SDS011;41718;51.980;5.734;2022-12-20T06:57:27;6.60;;;2.85;;
48789;SDS011;41718;51.980;5.734;2022-12-20T07:02:28;7.40;;;3.80;;
48789;SDS011;41718;51.980;5.734;2022-12-20T07:07:30;3.33;;;2.65;;
48789;SDS011;41718;51.980;5.734;2022-12-20T07:12:31;5.32;;;2.83;;
48789;SDS011;41718;51.980;5.734;2022-12-20T07:17:33;3.30;;;2.80;;
48789;SDS011;41718;51.980;5.734;2022-12-20T07:22:35;4.85;;;3.22;;
48789;SDS011;41718;51.980;5.734;2022-12-20T07:27:37;4.45;;;2.63;;
48789;SDS011;41718;51.980;5.734;2022-12-20T07:32:38;3.85;;;2.40;;
48789;SDS011;41718;51.980;5.734;2022-12-20T07:37:40;5.85;;;2.85;;
48789;SDS011;41718;51.980;5.734;2022-12-20T07:42:42;4.70;;;2.50;;
48789;SDS011;41718;51.980;5.734;2022-12-20T07:47:49;6.55;;;2.75;;
48789;SDS011;41718;51.980;5.734;2022-12-20T07:52:50;4.18;;;2.95;;
48789;SDS011;41718;51.980;5.734;2022-12-20T07:57:53;3.30;;;2.42;;
48789;SDS011;41718;51.980;5.734;2022-12-20T08:03:01;4.43;;;2.50;;
48789;SDS011;41718;51.980;5.734;2022-12-20T08:08:09;4.03;;;3.10;;
48789;SDS011;41718;51.980;5.734;2022-12-20T08:13:10;3.28;;;2.33;;
48789;SDS011;41718;51.980;5.734;2022-12-20T08:18:12;4.47;;;2.95;;
48789;SDS011;41718;51.980;5.734;2022-12-20T08:23:14;2.72;;;2.20;;
48789;SDS011;41718;51.980;5.734;2022-12-20T08:28:15;4.72;;;1.98;;
48789;SDS011;41718;51.980;5.734;2022-12-20T08:33:17;3.72;;;3.10;;
48789;SDS011;41718;51.980;5.734;2022-12-20T08:38:19;2.33;;;2.05;;
48789;SDS011;41718;51.980;5.734;2022-12-20T08:43:21;6.88;;;2.83;;
48789;SDS011;41718;51.980;5.734;2022-12-20T08:48:22;3.67;;;2.15;;
48789;SDS011;41718;51.980;5.734;2022-12-20T08:53:24;7.63;;;3.80;;
48789;SDS011;41718;51.980;5.734;2022-12-20T08:58:25;4.85;;;2.63;;
48789;SDS011;41718;51.980;5.734;2022-12-20T09:03:30;4.57;;;2.05;;
48789;SDS011;41718;51.980;5.734;2022-12-20T09:08:35;3.15;;;2.40;;
48789;SDS011;41718;51.980;5.734;2022-12-20T09:13:39;2.83;;;2.17;;
48789;SDS011;41718;51.980;5.734;2022-12-20T09:18:48;3.97;;;2.60;;
48789;SDS011;41718;51.980;5.734;2022-12-20T09:23:56;3.00;;;2.70;;
48789;SDS011;41718;51.980;5.734;2022-12-20T09:28:58;4.07;;;2.75;;
48789;SDS011;41718;51.980;5.734;2022-12-20T09:33:59;2.97;;;2.10;;
48789;SDS011;41718;51.980;5.734;2022-12-20T09:39:01;5.72;;;2.42;;
48789;SDS011;41718;51.980;5.734;2022-12-20T09:44:04;5.95;;;2.53;;
48789;SDS011;41718;51.980;5.734;2022-12-20T09:49:14;3.47;;;2.67;;
48789;SDS011;41718;51.980;5.734;2022-12-20T09:54:30;5.15;;;3.03;;
48789;SDS011;41718;51.980;5.734;2022-12-20T09:59:44;5.30;;;3.50;;
48789;SDS011;41718;51.980;5.734;2022-12-20T10:04:50;8.65;;;2.78;;
48789;SDS011;41718;51.980;5.734;2022-12-20T10:26:01;7.13;;;3.25;;
48789;SDS011;41718;51.980;5.734;2022-12-20T10:31:15;8.95;;;3.17;;
48789;SDS011;41718;51.980;5.734;2022-12-20T10:36:25;6.47;;;3.17;;
48789;SDS011;41718;51.980;5.734;2022-12-20T10:41:30;6.38;;;3.00;;
48789;SDS011;41718;51.980;5.734;2022-12-20T10:46:49;5.25;;;3.95;;
48789;SDS011;41718;51.980;5.734;2022-12-20T10:51:55;6.03;;;3.80;;
48789;SDS011;41718;51.980;5.734;2022-12-20T10:56:59;5.88;;;3.75;;
48789;SDS011;41718;51.980;5.734;2022-12-20T11:13:25;6.75;;;4.28;;
48789;SDS011;41718;51.980;5.734;2022-12-20T11:24:07;5.93;;;4.40;;
48789;SDS011;41718;51.980;5.734;2022-12-20T11:29:24;8.43;;;4.78;;
48789;SDS011;41718;51.980;5.734;2022-12-20T11:34:57;6.88;;;4.78;;
48789;SDS011;41718;51.980;5.734;2022-12-20T11:40:18;5.78;;;4.35;;
48789;SDS011;41718;51.980;5.734;2022-12-20T11:51:03;8.48;;;5.82;;
48789;SDS011;41718;51.980;5.734;2022-12-20T11:56:20;7.65;;;4.38;;
48789;SDS011;41718;51.980;5.734;2022-12-20T12:07:14;6.50;;;4.93;;
48789;SDS011;41718;51.980;5.734;2022-12-20T12:12:26;5.03;;;3.97;;
48789;SDS011;41718;51.980;5.734;2022-12-20T12:17:40;5.25;;;4.25;;
48789;SDS011;41718;51.980;5.734;2022-12-20T12:22:46;5.47;;;4.53;;
48789;SDS011;41718;51.980;5.734;2022-12-20T12:27:51;7.25;;;4.30;;
48789;SDS011;41718;51.980;5.734;2022-12-20T12:32:54;6.35;;;4.57;;
48789;SDS011;41718;51.980;5.734;2022-12-20T12:38:26;8.75;;;4.32;;
48789;SDS011;41718;51.980;5.734;2022-12-20T12:48:50;8.73;;;5.78;;
48789;SDS011;41718;51.980;5.734;2022-12-20T13:29:57;12.70;;;6.57;;
48789;SDS011;41718;51.980;5.734;2022-12-20T13:40:35;7.63;;;5.38;;
48789;SDS011;41718;51.980;5.734;2022-12-20T13:45:38;8.80;;;6.55;;
48789;SDS011;41718;51.980;5.734;2022-12-20T13:50:49;9.05;;;5.07;;
48789;SDS011;41718;51.980;5.734;2022-12-20T13:55:53;6.43;;;5.13;;
48789;SDS011;41718;51.980;5.734;2022-12-20T14:06:27;8.85;;;5.63;;
48789;SDS011;41718;51.980;5.734;2022-12-20T14:11:32;6.88;;;4.95;;
48789;SDS011;41718;51.980;5.734;2022-12-20T14:16:33;7.63;;;4.97;;
48789;SDS011;41718;51.980;5.734;2022-12-20T14:21:36;7.82;;;5.57;;
48789;SDS011;41718;51.980;5.734;2022-12-20T14:26:44;11.25;;;5.00;;
48789;SDS011;41718;51.980;5.734;2022-12-20T14:31:51;8.30;;;5.40;;
48789;SDS011;41718;51.980;5.734;2022-12-20T14:36:58;12.27;;;6.60;;
48789;SDS011;41718;51.980;5.734;2022-12-20T14:42:32;8.80;;;5.55;;
48789;SDS011;41718;51.980;5.734;2022-12-20T14:47:36;6.93;;;6.10;;
48789;SDS011;41718;51.980;5.734;2022-12-20T14:52:38;6.13;;;5.03;;
48789;SDS011;41718;51.980;5.734;2022-12-20T14:57:43;5.45;;;4.57;;
48789;SDS011;41718;51.980;5.734;2022-12-20T15:08:17;8.10;;;5.25;;
48789;SDS011;41718;51.980;5.734;2022-12-20T15:13:22;9.43;;;6.20;;
48789;SDS011;41718;51.980;5.734;2022-12-20T15:18:42;6.32;;;5.53;;
48789;SDS011;41718;51.980;5.734;2022-12-20T15:23:48;8.35;;;6.00;;
48789;SDS011;41718;51.980;5.734;2022-12-20T15:28:54;6.13;;;5.43;;
48789;SDS011;41718;51.980;5.734;2022-12-20T15:33:55;12.30;;;7.55;;
48789;SDS011;41718;51.980;5.734;2022-12-20T15:39:02;8.70;;;6.75;;
48789;SDS011;41718;51.980;5.734;2022-12-20T15:44:16;8.43;;;6.75;;
48789;SDS011;41718;51.980;5.734;2022-12-20T15:49:21;11.82;;;7.10;;
48789;SDS011;41718;51.980;5.734;2022-12-20T15:54:32;9.13;;;6.57;;
48789;SDS011;41718;51.980;5.734;2022-12-20T15:59:35;7.78;;;6.57;;
48789;SDS011;41718;51.980;5.734;2022-12-20T16:04:57;9.23;;;7.03;;
48789;SDS011;41718;51.980;5.734;2022-12-20T16:09:59;9.95;;;7.40;;
48789;SDS011;41718;51.980;5.734;2022-12-20T16:15:01;9.43;;;7.70;;
48789;SDS011;41718;51.980;5.734;2022-12-20T16:20:02;9.57;;;7.50;;
48789;SDS011;41718;51.980;5.734;2022-12-20T16:25:05;12.38;;;7.22;;
48789;SDS011;41718;51.980;5.734;2022-12-20T16:30:20;9.90;;;7.25;;
48789;SDS011;41718;51.980;5.734;2022-12-20T16:35:35;11.82;;;9.15;;
48789;SDS011;41718;51.980;5.734;2022-12-20T16:40:40;10.23;;;7.47;;
48789;SDS011;41718;51.980;5.734;2022-12-20T16:45:44;9.73;;;7.90;;
48789;SDS011;41718;51.980;5.734;2022-12-20T16:50:48;9.65;;;7.70;;
48789;SDS011;41718;51.980;5.734;2022-12-20T16:55:50;12.05;;;8.32;;
48789;SDS011;41718;51.980;5.734;2022-12-20T17:00:51;8.55;;;7.65;;
48789;SDS011;41718;51.980;5.734;2022-12-20T17:05:53;10.45;;;6.93;;
48789;SDS011;41718;51.980;5.734;2022-12-20T17:10:57;9.38;;;7.45;;
48789;SDS011;41718;51.980;5.734;2022-12-20T17:15:59;10.27;;;7.78;;
48789;SDS011;41718;51.980;5.734;2022-12-20T17:21:00;10.82;;;8.27;;
48789;SDS011;41718;51.980;5.734;2022-12-20T17:26:09;11.77;;;8.80;;
48789;SDS011;41718;51.980;5.734;2022-12-20T17:36:22;16.87;;;11.37;;
48789;SDS011;41718;51.980;5.734;2022-12-20T17:41:30;19.83;;;12.27;;
48789;SDS011;41718;51.980;5.734;2022-12-20T17:46:33;12.43;;;9.10;;
48789;SDS011;41718;51.980;5.734;2022-12-20T17:51:35;13.80;;;10.40;;
48789;SDS011;41718;51.980;5.734;2022-12-20T17:56:36;14.00;;;10.98;;
48789;SDS011;41718;51.980;5.734;2022-12-20T18:01:38;14.68;;;11.75;;
48789;SDS011;41718;51.980;5.734;2022-12-20T18:06:41;13.43;;;9.85;;
48789;SDS011;41718;51.980;5.734;2022-12-20T18:11:46;15.88;;;10.77;;
48789;SDS011;41718;51.980;5.734;2022-12-20T18:16:48;13.73;;;11.73;;
48789;SDS011;41718;51.980;5.734;2022-12-20T18:21:50;15.25;;;10.93;;
48789;SDS011;41718;51.980;5.734;2022-12-20T18:26:51;20.52;;;14.63;;
48789;SDS011;41718;51.980;5.734;2022-12-20T18:31:53;17.33;;;13.38;;
48789;SDS011;41718;51.980;5.734;2022-12-20T18:36:55;19.67;;;14.02;;
48789;SDS011;41718;51.980;5.734;2022-12-20T18:41:59;14.98;;;12.63;;
48789;SDS011;41718;51.980;5.734;2022-12-20T18:47:01;19.05;;;14.30;;
48789;SDS011;41718;51.980;5.734;2022-12-20T18:52:03;18.60;;;14.05;;
48789;SDS011;41718;51.980;5.734;2022-12-20T18:57:48;17.75;;;12.32;;
48789;SDS011;41718;51.980;5.734;2022-12-20T19:02:49;23.27;;;16.38;;
48789;SDS011;41718;51.980;5.734;2022-12-20T19:07:53;18.85;;;14.60;;
48789;SDS011;41718;51.980;5.734;2022-12-20T19:12:57;20.75;;;15.45;;
48789;SDS011;41718;51.980;5.734;2022-12-20T19:18:05;22.73;;;16.00;;
48789;SDS011;41718;51.980;5.734;2022-12-20T19:23:07;28.35;;;18.58;;
48789;SDS011;41718;51.980;5.734;2022-12-20T19:28:12;21.67;;;15.02;;
48789;SDS011;41718;51.980;5.734;2022-12-20T19:33:14;30.52;;;18.02;;
48789;SDS011;41718;51.980;5.734;2022-12-20T19:38:16;26.55;;;18.33;;
48789;SDS011;41718;51.980;5.734;2022-12-20T19:43:17;27.15;;;18.30;;
48789;SDS011;41718;51.980;5.734;2022-12-20T19:48:19;23.48;;;17.17;;
48789;SDS011;41718;51.980;5.734;2022-12-20T19:53:24;26.17;;;18.38;;
48789;SDS011;41718;51.980;5.734;2022-12-20T19:58:26;27.17;;;17.65;;
48789;SDS011;41718;51.980;5.734;2022-12-20T20:03:30;25.60;;;18.60;;
48789;SDS011;41718;51.980;5.734;2022-12-20T20:08:35;25.08;;;18.83;;
48789;SDS011;41718;51.980;5.734;2022-12-20T20:13:40;27.88;;;18.92;;
48789;SDS011;41718;51.980;5.734;2022-12-20T20:18:42;27.25;;;19.88;;
48789;SDS011;41718;51.980;5.734;2022-12-20T20:23:45;31.75;;;21.27;;
48789;SDS011;41718;51.980;5.734;2022-12-20T20:28:48;28.33;;;21.13;;
48789;SDS011;41718;51.980;5.734;2022-12-20T20:33:50;38.13;;;24.02;;
48789;SDS011;41718;51.980;5.734;2022-12-20T20:38:52;38.97;;;23.65;;
48789;SDS011;41718;51.980;5.734;2022-12-20T20:43:54;29.33;;;20.98;;
48789;SDS011;41718;51.980;5.734;2022-12-20T20:48:56;28.77;;;18.98;;
48789;SDS011;41718;51.980;5.734;2022-12-20T20:53:58;27.88;;;20.30;;
48789;SDS011;41718;51.980;5.734;2022-12-20T20:59:01;33.88;;;22.02;;
48789;SDS011;41718;51.980;5.734;2022-12-20T21:04:10;41.30;;;26.63;;
48789;SDS011;41718;51.980;5.734;2022-12-20T21:09:14;44.10;;;26.73;;
48789;SDS011;41718;51.980;5.734;2022-12-20T21:14:23;26.80;;;18.90;;
48789;SDS011;41718;51.980;5.734;2022-12-20T21:19:45;30.25;;;21.13;;
48789;SDS011;41718;51.980;5.734;2022-12-20T21:24:47;31.75;;;19.75;;
48789;SDS011;41718;51.980;5.734;2022-12-20T21:29:49;22.88;;;15.13;;
48789;SDS011;41718;51.980;5.734;2022-12-20T21:34:51;28.90;;;19.00;;
48789;SDS011;41718;51.980;5.734;2022-12-20T21:39:54;24.08;;;15.98;;
48789;SDS011;41718;51.980;5.734;2022-12-20T21:45:02;20.05;;;14.23;;
48789;SDS011;41718;51.980;5.734;2022-12-20T21:50:05;19.90;;;14.00;;
48789;SDS011;41718;51.980;5.734;2022-12-20T21:55:11;23.35;;;14.45;;
48789;SDS011;41718;51.980;5.734;2022-12-20T22:00:13;26.05;;;15.65;;
48789;SDS011;41718;51.980;5.734;2022-12-20T22:05:16;24.23;;;15.60;;
48789;SDS011;41718;51.980;5.734;2022-12-20T22:10:18;26.40;;;16.80;;
48789;SDS011;41718;51.980;5.734;2022-12-20T22:15:20;24.85;;;16.50;;
48789;SDS011;41718;51.980;5.734;2022-12-20T22:20:21;27.20;;;17.17;;
48789;SDS011;41718;51.980;5.734;2022-12-20T22:25:25;29.45;;;19.25;;
48789;SDS011;41718;51.980;5.734;2022-12-20T22:30:40;25.70;;;14.98;;
48789;SDS011;41718;51.980;5.734;2022-12-20T22:35:46;36.78;;;20.92;;
48789;SDS011;41718;51.980;5.734;2022-12-20T22:40:48;28.10;;;17.08;;
48789;SDS011;41718;51.980;5.734;2022-12-20T22:46:00;36.47;;;21.65;;
48789;SDS011;41718;51.980;5.734;2022-12-20T22:51:23;33.33;;;18.38;;
48789;SDS011;41718;51.980;5.734;2022-12-20T22:56:35;30.77;;;18.80;;
48789;SDS011;41718;51.980;5.734;2022-12-20T23:01:36;39.08;;;21.13;;
48789;SDS011;41718;51.980;5.734;2022-12-20T23:06:41;39.92;;;21.85;;
48789;SDS011;41718;51.980;5.734;2022-12-20T23:11:42;38.03;;;22.67;;
48789;SDS011;41718;51.980;5.734;2022-12-20T23:17:04;42.83;;;23.45;;
48789;SDS011;41718;51.980;5.734;2022-12-20T23:22:15;36.05;;;21.88;;
48789;SDS011;41718;51.980;5.734;2022-12-20T23:27:35;36.63;;;21.63;;
48789;SDS011;41718;51.980;5.734;2022-12-20T23:32:38;43.40;;;23.17;;
48789;SDS011;41718;51.980;5.734;2022-12-20T23:37:50;47.03;;;23.67;;
48789;SDS011;41718;51.980;5.734;2022-12-20T23:42:55;41.83;;;25.83;;
48789;SDS011;41718;51.980;5.734;2022-12-20T23:47:59;46.00;;;24.65;;
48789;SDS011;41718;51.980;5.734;2022-12-20T23:53:01;41.13;;;24.35;;
48789;SDS011;41718;51.980;5.734;2022-12-20T23:58:05;41.92;;;22.88;;
